ジュノー国際空港の過去48時間の天気

ジュノー国際空港 (Juneau, Juneau International Airport)

現在時刻: 1/22 18:25 AKST (1/23 03:25 UTC) 以下の時間は現地時間です。

過去48時間のMETAR気象情報
時間 風向 風速(m/s) 視程 気温(℃) 湿度(%) 気圧(hPa) 天気現象
22 17:53 静穏 0 3200m 0 100 997.6 弱い雨
22 17:32 静穏 0 3200m 0.6 96 998 弱い雨
22 17:13 静穏 0 3200m 0 96 998 弱い雨
22 16:53 静穏 0 3200m 0.6 92 998.6 弱い雨
22 15:53 静穏 0 3200m 0.6 92 999.5 弱い雨
22 15:19 静穏 0 800m 0 100 1000 弱い雨 霧
22 15:02 2 800m 0.6 96 1000
22 14:53 2 800m 0 96 1000.2
22 14:26 2 800m 0 96 1000 弱い雨 霧
22 14:03 静穏 0 800m 0.6 96 1000 弱い雨 霧
22 13:53 静穏 0 800m 0.6 96 1000.4 弱い雨 霧
22 12:53 静穏 0 800m 0.6 96 1000.8
22 12:28 静穏 0 800m 0.6 96 1001
22 12:10 静穏 0 3200m 0.6 92 1001 もや
22 11:53 静穏 0 3200m 0.6 96 1001.3 もや
22 11:45 静穏 0 3200m 0.6 96 1001 もや
22 11:11 静穏 0 3200m 0.6 96 1002 弱い雨 もや
22 10:53 静穏 0 2400m 0.6 96 1001.6 弱い雨 もや
PAJN 230253Z 00000KT 2SM -RA OVC005 00/00 A2946 RMK AO2 SLP976 P0001 60001 T00000000 58019
PAJN 230232Z 00000KT 2SM -RA OVC005 01/00 A2947 RMK AO2 P0000 T00060000
PAJN 230213Z 00000KT 2SM -RA FEW006 OVC030 00/M01 A2948 RMK AO2 P0000 T00001006
PAJN 230153Z 00000KT 2SM -RA FEW002 BKN015 OVC037 01/M01 A2949 RMK AO2 SLP986 P0000 T00061006
PAJN 230053Z 00000KT 2SM -RA SCT001 BKN008 OVC037 01/M01 A2952 RMK AO2 RAB03 SLP995 4/007 P0000 T00061006
PAJN 230019Z 00000KT 1/2SM -RA FG FEW002 BKN024 OVC034 00/00 A2953 RMK AO2 RAB03 4/007 P0000 T00000000 RVRNO
PAJN 230002Z 09004KT 1/2SM FG FEW003 BKN013 OVC030 01/00 A2953 RMK AO2 4/007 T00060000 RVRNO
PAJN 222353Z 09003KT 1/2SM FG FEW003 BKN007 OVC031 00/M01 A2954 RMK AO2 RAE32UPB32E36 SLP002 P0000 60005 T00001006 10006 20000 56011 RVRNO
PAJN 222326Z 08003KT 1/2SM -RA FG FEW004 BKN018 OVC031 00/M01 A2954 RMK AO2 P0000 T00001006 RVRNO
PAJN 222303Z 00000KT 1/2SM -RA FG OVC004 01/00 A2954 RMK AO2 P0000 T00060000 RVRNO
PAJN 222253Z 00000KT 1/2SM -RA FG OVC003 01/00 A2954 RMK AO2 RAB17 SLP004 P0000 T00060000 RVRNO
PAJN 222153Z 00000KT 1/2SM FG OVC003 01/00 A2955 RMK AO2 SLP008 T00060000 RVRNO
PAJN 222128Z 00000KT 1/2SM FG OVC003 01/00 A2956 RMK AO2 TWR VIS 3/4 T00060000 RVRNO
PAJN 222110Z 00000KT 2SM BR OVC003 01/M01 A2956 RMK AO2 SFC VIS 3 T00061006
PAJN 222053Z 00000KT 2SM BR FEW001 OVC009 01/00 A2957 RMK AO2 SFC VIS 4 RAE15 SLP013 P0001 60005 T00060000 58001
PAJN 222045Z 00000KT 2SM BR FEW001 OVC009 01/00 A2957 RMK AO2 SFC VIS 4 RAE15 P0001 T00060000
PAJN 222011Z 00000KT 2SM -RA BR FEW003 OVC010 01/00 A2958 RMK AO2 SFC VIS 3 P0001 T00060000
PAJN 221953Z COR 00000KT 1 1/2SM -RA BR SCT003 OVC012 01/00 A2958 RMK AO2 SFC VIS 3 RAB47SNE41 SLP016 P0000 T00060000